createdAt,value
2022-08-24T00:02:28.672Z,17.84
2022-08-24T00:05:15.138Z,17.90
2022-08-24T00:08:02.770Z,17.80
2022-08-24T00:10:49.475Z,17.96
2022-08-24T00:13:36.716Z,18.14
2022-08-24T00:16:26.858Z,17.87
2022-08-24T00:19:13.201Z,17.69
2022-08-24T00:22:00.361Z,17.58
2022-08-24T00:24:46.714Z,17.71
2022-08-24T00:27:33.123Z,17.45
2022-08-24T00:30:20.904Z,18.07
2022-08-24T00:33:08.330Z,17.70
2022-08-24T00:35:54.423Z,17.60
2022-08-24T00:38:40.767Z,17.89
2022-08-24T00:41:28.533Z,17.96
2022-08-24T00:44:16.600Z,17.73
2022-08-24T00:47:06.959Z,17.95
2022-08-24T00:50:00.131Z,17.61
2022-08-24T00:52:50.790Z,17.73
2022-08-24T00:55:49.345Z,17.54
2022-08-24T00:58:39.737Z,17.91
2022-08-24T01:01:26.492Z,17.89
2022-08-24T01:04:18.513Z,18.03
2022-08-24T01:07:05.083Z,17.97
2022-08-24T01:10:00.201Z,17.64
2022-08-24T01:12:59.523Z,17.68
2022-08-24T01:15:49.108Z,17.68
2022-08-24T01:18:51.738Z,18.09
2022-08-24T01:21:44.361Z,17.80
2022-08-24T01:24:31.101Z,18.01
2022-08-24T01:27:19.229Z,17.72
2022-08-24T01:30:13.576Z,17.79
2022-08-24T01:33:02.574Z,18.02
2022-08-24T01:35:49.082Z,18.46
2022-08-24T01:38:35.756Z,18.31
2022-08-24T01:41:24.726Z,17.89
2022-08-24T01:44:15.226Z,17.50
2022-08-24T01:47:02.897Z,17.60
2022-08-24T01:49:53.760Z,18.07
2022-08-24T01:53:03.972Z,17.62
2022-08-24T01:55:48.900Z,18.23
2022-08-24T01:58:35.836Z,18.28
2022-08-24T02:01:22.172Z,18.15
2022-08-24T02:04:09.691Z,18.23
2022-08-24T02:06:56.010Z,18.49
2022-08-24T02:09:42.260Z,18.53
2022-08-24T02:12:28.470Z,18.17
2022-08-24T02:15:14.974Z,17.99
2022-08-24T02:18:01.287Z,17.47
2022-08-24T02:20:47.955Z,18.35
2022-08-24T02:23:35.428Z,18.18
2022-08-24T02:26:21.760Z,18.39
2022-08-24T02:29:08.672Z,18.81
2022-08-24T02:31:55.168Z,18.20
2022-08-24T02:34:41.417Z,17.98
2022-08-24T02:37:27.883Z,17.74
2022-08-24T02:40:14.521Z,17.70
2022-08-24T02:43:01.300Z,17.45
2022-08-24T02:45:50.354Z,18.08
2022-08-24T02:48:37.141Z,17.40
2022-08-24T02:51:26.433Z,17.83
2022-08-24T02:54:19.563Z,17.84
2022-08-24T02:57:05.927Z,17.73
2022-08-24T02:59:52.299Z,17.84
2022-08-24T03:02:40.003Z,17.37
2022-08-24T03:05:26.655Z,17.65
2022-08-24T03:08:12.862Z,17.63
2022-08-24T03:11:00.476Z,17.67
2022-08-24T03:13:46.834Z,17.91
2022-08-24T03:16:33.461Z,17.98
2022-08-24T03:19:20.309Z,17.65
2022-08-24T03:22:06.801Z,17.31
2022-08-24T03:24:53.243Z,17.45
2022-08-24T03:27:41.067Z,17.74
2022-08-24T03:30:27.983Z,18.08
2022-08-24T03:33:14.649Z,17.89
2022-08-24T03:36:00.966Z,18.33
2022-08-24T03:38:47.415Z,18.07
2022-08-24T03:41:35.382Z,17.73
2022-08-24T03:44:25.801Z,17.41
2022-08-24T03:47:13.352Z,17.22
2022-08-24T03:49:59.837Z,17.13
2022-08-24T03:52:47.306Z,17.47
2022-08-24T03:55:33.760Z,17.59
2022-08-24T03:58:20.124Z,17.81
2022-08-24T04:01:06.520Z,17.91
2022-08-24T04:03:55.624Z,17.92
2022-08-24T04:06:44.596Z,17.95
2022-08-24T04:09:31.534Z,17.74
2022-08-24T04:12:17.662Z,17.77
2022-08-24T04:15:05.826Z,17.83
2022-08-24T04:17:53.028Z,17.53
2022-08-24T04:20:43.227Z,18.26
2022-08-24T04:23:46.600Z,18.24
2022-08-24T04:26:44.866Z,18.14
2022-08-24T04:29:35.879Z,17.70
2022-08-24T04:32:22.238Z,18.23
2022-08-24T04:35:09.440Z,17.75
2022-08-24T04:37:56.167Z,17.59
2022-08-24T04:40:44.548Z,17.65
2022-08-24T04:43:34.136Z,17.89
2022-08-24T04:46:20.604Z,17.65
2022-08-24T04:49:07.077Z,17.96
2022-08-24T04:51:53.976Z,17.73
2022-08-24T04:54:41.405Z,17.75
2022-08-24T04:57:27.824Z,17.41
2022-08-24T05:00:14.994Z,17.95
2022-08-24T05:03:01.710Z,17.85
2022-08-24T05:05:49.503Z,17.93
2022-08-24T05:08:35.794Z,18.03
2022-08-24T05:11:22.874Z,18.13
2022-08-24T05:14:11.242Z,17.91
2022-08-24T05:16:59.072Z,18.37
2022-08-24T05:19:45.601Z,17.91
2022-08-24T05:22:31.915Z,17.86
2022-08-24T05:25:18.966Z,18.23
2022-08-24T05:28:06.066Z,18.30
2022-08-24T05:30:52.159Z,18.26
2022-08-24T05:33:39.041Z,18.63
2022-08-24T05:36:28.997Z,18.78
2022-08-24T05:39:15.821Z,18.32
2022-08-24T05:42:02.846Z,18.16
2022-08-24T05:44:50.838Z,17.93
2022-08-24T05:47:37.388Z,18.08
2022-08-24T05:50:24.673Z,18.11
2022-08-24T05:53:13.349Z,18.62
2022-08-24T05:56:05.024Z,18.83
2022-08-24T05:58:51.160Z,18.50
2022-08-24T06:01:42.179Z,19.15
2022-08-24T06:04:31.849Z,18.85
2022-08-24T06:07:18.546Z,18.99
2022-08-24T06:10:32.787Z,18.79
2022-08-24T06:13:12.214Z,18.94
2022-08-24T06:16:21.963Z,18.82
2022-08-24T06:19:10.120Z,19.16
2022-08-24T06:21:56.617Z,19.35
2022-08-24T06:25:01.770Z,19.19
2022-08-24T06:27:48.261Z,19.93
2022-08-24T06:30:35.005Z,19.98
2022-08-24T06:33:22.115Z,20.37
2022-08-24T06:36:08.858Z,20.38
2022-08-24T06:38:55.292Z,20.71
2022-08-24T06:41:42.443Z,20.72
2022-08-24T06:44:29.173Z,20.19
2022-08-24T06:47:16.988Z,20.56
2022-08-24T06:50:03.811Z,20.58
2022-08-24T06:52:50.256Z,20.97
2022-08-24T06:55:36.937Z,20.60
2022-08-24T06:58:28.728Z,21.32
2022-08-24T07:01:20.586Z,21.11
2022-08-24T07:04:07.150Z,21.66
2022-08-24T07:06:56.367Z,21.86
2022-08-24T07:09:42.865Z,21.46
2022-08-24T07:12:30.175Z,21.72
2022-08-24T07:15:16.737Z,21.98
2022-08-24T07:18:09.936Z,22.09
2022-08-24T07:21:01.242Z,22.02
2022-08-24T07:23:55.233Z,21.75
2022-08-24T07:26:41.666Z,21.52
2022-08-24T07:29:47.211Z,21.59
2022-08-24T07:32:35.251Z,22.05
2022-08-24T07:35:22.186Z,22.85
2022-08-24T07:38:08.791Z,23.20
2022-08-24T07:41:20.050Z,22.65
2022-08-24T07:44:01.479Z,23.15
2022-08-24T07:46:49.493Z,23.22
2022-08-24T07:49:39.569Z,24.26
2022-08-24T07:52:26.218Z,24.52
2022-08-24T07:55:13.562Z,24.77
2022-08-24T07:58:00.880Z,25.37
2022-08-24T08:00:48.433Z,25.31
2022-08-24T08:03:34.729Z,24.87
2022-08-24T08:06:21.065Z,24.51
2022-08-24T08:09:08.098Z,25.53
2022-08-24T08:11:54.378Z,26.09
2022-08-24T08:14:40.716Z,26.60
2022-08-24T08:17:27.558Z,26.59
2022-08-24T08:20:14.545Z,26.36
2022-08-24T08:23:25.271Z,26.52
2022-08-24T08:26:17.542Z,26.76
2022-08-24T08:29:04.381Z,26.82
2022-08-24T08:31:52.320Z,26.73
2022-08-24T08:34:39.338Z,26.70
2022-08-24T08:37:26.337Z,26.90
2022-08-24T08:40:23.748Z,26.84
2022-08-24T08:43:18.069Z,27.31
2022-08-24T08:46:24.357Z,27.05
2022-08-24T08:49:47.292Z,27.08
2022-08-24T08:52:52.236Z,26.73
2022-08-24T08:55:57.427Z,26.77
2022-08-24T08:59:01.659Z,26.50
2022-08-24T09:02:15.235Z,26.00
2022-08-24T09:05:07.400Z,26.25
2022-08-24T09:08:15.253Z,26.16
2022-08-24T09:11:20.627Z,26.96
2022-08-24T09:14:42.483Z,26.75
2022-08-24T09:17:56.576Z,27.16
2022-08-24T09:21:14.569Z,26.78
2022-08-24T09:24:40.894Z,27.80
2022-08-24T09:27:52.259Z,28.04
2022-08-24T09:31:05.589Z,28.23
2022-08-24T09:34:20.372Z,27.56
2022-08-24T09:37:09.489Z,27.75
2022-08-24T09:40:23.967Z,27.00
2022-08-24T09:43:36.933Z,28.00
2022-08-24T09:46:26.546Z,28.77
2022-08-24T09:49:27.965Z,28.81
2022-08-24T09:52:44.429Z,28.62
2022-08-24T09:56:05.022Z,28.99
2022-08-24T09:59:04.438Z,27.93
2022-08-24T10:02:09.650Z,28.93
2022-08-24T10:05:21.129Z,28.96
2022-08-24T10:08:25.388Z,28.80
2022-08-24T10:11:24.046Z,28.37
2022-08-24T10:14:19.350Z,28.68
2022-08-24T10:17:23.854Z,29.10
2022-08-24T10:20:16.393Z,29.29
2022-08-24T10:23:30.346Z,29.41
2022-08-24T10:26:26.456Z,29.11
2022-08-24T10:30:08.683Z,29.22
2022-08-24T10:33:20.049Z,28.99
2022-08-24T10:36:41.588Z,28.97
2022-08-24T10:40:09.615Z,27.99
2022-08-24T10:43:34.363Z,28.64
2022-08-24T10:46:39.115Z,28.32
2022-08-24T10:49:34.839Z,28.69
2022-08-24T10:52:40.111Z,28.43
2022-08-24T10:55:30.406Z,28.80
2022-08-24T10:58:51.893Z,28.60
2022-08-24T11:01:39.368Z,27.87
2022-08-24T11:04:29.260Z,28.35
2022-08-24T11:07:19.136Z,28.16
2022-08-24T11:10:08.912Z,27.36
2022-08-24T11:12:56.029Z,27.91
2022-08-24T11:15:55.203Z,27.20
2022-08-24T11:18:49.466Z,27.13
2022-08-24T11:21:46.929Z,26.44
2022-08-24T11:24:43.402Z,25.90
2022-08-24T11:27:34.928Z,25.81
2022-08-24T11:30:21.475Z,26.85
2022-08-24T11:33:27.536Z,27.45
2022-08-24T11:36:21.457Z,27.40
2022-08-24T11:39:25.777Z,25.93
2022-08-24T11:42:29.205Z,25.98
2022-08-24T11:45:31.560Z,25.37
2022-08-24T11:48:46.633Z,25.29
2022-08-24T11:51:51.335Z,24.38
2022-08-24T11:55:05.323Z,24.61
2022-08-24T11:58:00.380Z,23.91
2022-08-24T12:01:02.317Z,24.18
2022-08-24T12:04:12.173Z,24.19
2022-08-24T12:07:39.491Z,22.97
2022-08-24T12:10:55.915Z,22.52
2022-08-24T12:14:10.485Z,22.15
2022-08-24T12:17:02.734Z,22.27
2022-08-24T12:19:53.229Z,21.41
2022-08-24T12:22:40.190Z,20.76
2022-08-24T12:25:50.702Z,21.40
2022-08-24T12:28:41.535Z,20.62
2022-08-24T12:31:47.324Z,20.76
2022-08-24T12:34:36.948Z,20.92
2022-08-24T12:37:36.773Z,21.22
2022-08-24T12:40:33.568Z,21.34
2022-08-24T12:43:40.321Z,22.08
2022-08-24T12:46:27.330Z,21.66
2022-08-24T12:49:25.958Z,21.25
2022-08-24T12:52:50.546Z,21.56
2022-08-24T12:55:58.231Z,21.54
2022-08-24T12:59:20.087Z,22.43
2022-08-24T13:02:06.225Z,22.28
2022-08-24T13:04:52.946Z,22.15
2022-08-24T13:07:43.883Z,21.98
2022-08-24T13:10:38.969Z,21.75
2022-08-24T13:13:42.460Z,21.85
2022-08-24T13:16:57.065Z,22.93
2022-08-24T13:19:46.105Z,23.61
2022-08-24T13:23:07.088Z,23.82
2022-08-24T13:25:55.852Z,23.31
2022-08-24T13:28:50.265Z,23.80
2022-08-24T13:31:49.193Z,24.13
2022-08-24T13:34:38.057Z,24.54
2022-08-24T13:37:27.131Z,24.84
2022-08-24T13:40:19.017Z,24.29
2022-08-24T13:43:20.293Z,24.72
2022-08-24T13:46:44.525Z,24.94
2022-08-24T13:49:36.531Z,25.01
2022-08-24T13:52:32.442Z,24.78
2022-08-24T13:55:28.917Z,25.07
2022-08-24T13:58:34.668Z,25.31
2022-08-24T14:01:44.638Z,25.36
2022-08-24T14:04:39.863Z,24.66
2022-08-24T14:07:33.944Z,25.50
2022-08-24T14:10:23.634Z,25.90
2022-08-24T14:13:26.679Z,25.56
2022-08-24T14:17:19.348Z,25.58
2022-08-24T14:20:27.798Z,25.99
2022-08-24T14:23:46.161Z,25.57
2022-08-24T14:26:38.845Z,25.75
2022-08-24T14:29:28.247Z,26.00
2022-08-24T14:32:34.953Z,25.90
2022-08-24T14:35:41.495Z,25.54
2022-08-24T14:38:52.897Z,25.16
2022-08-24T14:42:06.118Z,25.18
2022-08-24T14:44:55.881Z,25.44
2022-08-24T14:48:00.883Z,25.32
2022-08-24T14:51:09.074Z,24.68
2022-08-24T14:54:03.753Z,25.60
2022-08-24T14:57:13.182Z,25.99
2022-08-24T15:00:17.105Z,25.76
2022-08-24T15:03:31.698Z,25.20
2022-08-24T15:06:28.095Z,25.24
2022-08-24T15:09:26.126Z,25.29
2022-08-24T15:12:25.751Z,24.81
2022-08-24T15:15:33.969Z,24.73
2022-08-24T15:18:37.048Z,24.67
2022-08-24T15:21:29.313Z,24.05
2022-08-24T15:24:34.236Z,24.16
2022-08-24T15:27:55.870Z,24.43
2022-08-24T15:31:10.996Z,24.40
2022-08-24T15:34:03.226Z,24.35
2022-08-24T15:36:59.667Z,24.15
2022-08-24T15:39:46.071Z,24.21
2022-08-24T15:42:35.435Z,24.15
2022-08-24T15:45:22.162Z,24.11
2022-08-24T15:48:12.317Z,23.92
2022-08-24T15:50:59.441Z,23.23
2022-08-24T15:53:45.777Z,24.20
2022-08-24T15:56:40.827Z,24.33
2022-08-24T15:59:32.436Z,24.18
2022-08-24T16:02:29.881Z,23.81
2022-08-24T16:05:21.515Z,23.70
2022-08-24T16:08:10.584Z,23.75
2022-08-24T16:10:57.367Z,24.07
2022-08-24T16:13:43.339Z,23.76
2022-08-24T16:16:38.909Z,24.45
2022-08-24T16:19:32.940Z,25.02
2022-08-24T16:22:29.990Z,25.11
2022-08-24T16:25:18.221Z,25.02
2022-08-24T16:28:22.070Z,24.97
2022-08-24T16:31:08.489Z,24.38
2022-08-24T16:34:09.982Z,24.05
2022-08-24T16:36:56.572Z,24.16
2022-08-24T16:39:43.460Z,24.06
2022-08-24T16:42:30.764Z,24.35
2022-08-24T16:45:20.277Z,24.26
2022-08-24T16:48:06.352Z,24.29
2022-08-24T16:50:52.653Z,24.00
2022-08-24T16:53:39.386Z,24.38
2022-08-24T16:56:26.009Z,24.46
2022-08-24T16:59:17.560Z,24.34
2022-08-24T17:02:04.358Z,23.52
2022-08-24T17:04:52.125Z,24.18
2022-08-24T17:07:38.978Z,24.82
2022-08-24T17:10:27.566Z,24.76
2022-08-24T17:13:33.071Z,24.98
2022-08-24T17:16:21.675Z,25.22
2022-08-24T17:19:12.052Z,25.27
2022-08-24T17:21:58.503Z,25.63
2022-08-24T17:24:45.560Z,25.41
2022-08-24T17:27:35.181Z,25.31
2022-08-24T17:30:25.996Z,25.75
2022-08-24T17:33:16.556Z,25.77
2022-08-24T17:36:05.370Z,25.20
2022-08-24T17:38:55.870Z,25.12
2022-08-24T17:41:42.482Z,25.41
2022-08-24T17:44:33.424Z,25.11
2022-08-24T17:47:19.817Z,25.45
2022-08-24T17:50:10.182Z,25.63
2022-08-24T17:53:00.251Z,25.30
2022-08-24T17:55:47.403Z,25.11
2022-08-24T17:58:54.142Z,25.13
2022-08-24T18:01:40.247Z,25.24
2022-08-24T18:04:29.858Z,25.34
2022-08-24T18:07:30.611Z,25.21
2022-08-24T18:10:32.248Z,25.20
2022-08-24T18:13:18.698Z,25.17
2022-08-24T18:16:05.258Z,24.97
2022-08-24T18:18:52.672Z,24.48
2022-08-24T18:21:42.101Z,24.31
2022-08-24T18:24:32.468Z,24.75
2022-08-24T18:27:29.292Z,24.71
2022-08-24T18:30:22.492Z,24.04
2022-08-24T18:33:12.314Z,24.34
2022-08-24T18:35:59.014Z,24.34
2022-08-24T18:38:47.550Z,24.45
2022-08-24T18:41:38.473Z,24.78
2022-08-24T18:44:29.536Z,24.87
2022-08-24T18:47:17.997Z,24.88
2022-08-24T18:50:07.019Z,24.41
2022-08-24T18:52:55.856Z,23.99
2022-08-24T18:55:46.163Z,23.84
2022-08-24T18:58:33.783Z,22.02
2022-08-24T19:01:22.473Z,22.75
2022-08-24T19:04:13.981Z,23.29
2022-08-24T19:07:01.193Z,23.72
2022-08-24T19:09:48.355Z,23.77
2022-08-24T19:12:39.882Z,23.92
2022-08-24T19:15:39.069Z,23.90
2022-08-24T19:18:26.646Z,23.71
2022-08-24T19:21:13.237Z,23.85
2022-08-24T19:24:01.308Z,23.72
2022-08-24T19:26:47.848Z,23.77
2022-08-24T19:32:43.944Z,24.07
2022-08-24T19:35:34.866Z,24.22
2022-08-24T19:38:25.537Z,23.87
2022-08-24T19:41:17.574Z,23.84
2022-08-24T19:44:27.716Z,24.04
2022-08-24T19:47:14.858Z,23.91
2022-08-24T19:50:02.309Z,23.78
2022-08-24T19:52:48.773Z,23.56
2022-08-24T19:55:35.262Z,23.60
2022-08-24T19:58:45.046Z,23.33
2022-08-24T20:01:34.810Z,23.29
2022-08-24T20:04:24.925Z,23.65
2022-08-24T20:07:14.820Z,23.79
2022-08-24T20:10:01.260Z,23.91
2022-08-24T20:13:00.354Z,23.96
2022-08-24T20:15:46.772Z,23.83
2022-08-24T20:18:35.354Z,23.61
2022-08-24T20:21:27.081Z,23.27
2022-08-24T20:24:16.555Z,23.13
2022-08-24T20:27:03.284Z,23.15
2022-08-24T20:29:49.886Z,23.11
2022-08-24T20:32:36.467Z,22.96
2022-08-24T20:35:29.310Z,23.25
2022-08-24T20:38:18.594Z,23.41
2022-08-24T20:41:04.639Z,23.19
2022-08-24T20:43:51.058Z,23.35
2022-08-24T20:46:38.563Z,23.10
2022-08-24T20:49:26.767Z,23.09
2022-08-24T20:52:13.093Z,22.95
2022-08-24T20:54:59.742Z,22.72
2022-08-24T20:57:52.063Z,22.72
2022-08-24T21:00:41.011Z,22.67
2022-08-24T21:03:27.293Z,22.99
2022-08-24T21:06:16.936Z,23.17
2022-08-24T21:09:05.360Z,23.03
2022-08-24T21:11:52.123Z,22.90
2022-08-24T21:14:38.193Z,22.82
2022-08-24T21:17:25.502Z,22.73
2022-08-24T21:20:13.557Z,22.61
2022-08-24T21:23:00.064Z,22.68
2022-08-24T21:25:47.141Z,22.75
2022-08-24T21:28:36.978Z,23.08
2022-08-24T21:31:23.209Z,22.88
2022-08-24T21:34:28.167Z,22.94
2022-08-24T21:37:17.887Z,22.53
2022-08-24T21:40:06.856Z,22.85
2022-08-24T21:42:53.221Z,22.92
2022-08-24T21:45:41.445Z,22.96
2022-08-24T21:48:27.611Z,22.68
2022-08-24T21:51:14.092Z,22.67
2022-08-24T21:54:00.416Z,22.60
2022-08-24T21:56:46.763Z,22.48
2022-08-24T21:59:34.178Z,22.69
2022-08-24T22:02:20.769Z,22.45
2022-08-24T22:05:07.674Z,22.27
2022-08-24T22:07:53.822Z,22.21
2022-08-24T22:10:40.058Z,22.18
2022-08-24T22:13:27.205Z,22.43
2022-08-24T22:16:14.147Z,22.72
2022-08-24T22:19:00.525Z,22.59
2022-08-24T22:21:48.129Z,22.21
2022-08-24T22:24:36.322Z,22.04
2022-08-24T22:27:24.959Z,22.08
2022-08-24T22:30:17.124Z,22.03
2022-08-24T22:33:05.177Z,22.25
2022-08-24T22:35:52.128Z,22.36
2022-08-24T22:38:39.346Z,22.29
2022-08-24T22:41:27.302Z,22.44
2022-08-24T22:44:20.278Z,21.96
2022-08-24T22:47:10.915Z,21.85
2022-08-24T22:50:01.785Z,21.73
2022-08-24T22:52:48.054Z,21.86
2022-08-24T22:55:34.527Z,22.00
2022-08-24T22:58:20.866Z,22.21
2022-08-24T23:01:07.107Z,22.38
2022-08-24T23:03:55.414Z,22.34
2022-08-24T23:06:42.116Z,22.20
2022-08-24T23:09:28.391Z,21.79
2022-08-24T23:12:22.482Z,21.49
2022-08-24T23:15:09.254Z,21.33
2022-08-24T23:17:55.600Z,21.40
2022-08-24T23:20:41.832Z,21.49
2022-08-24T23:23:28.186Z,21.53
2022-08-24T23:26:18.121Z,21.88
2022-08-24T23:29:06.378Z,22.00
2022-08-24T23:31:53.921Z,22.15
2022-08-24T23:34:40.656Z,22.25
2022-08-24T23:37:27.413Z,21.95
2022-08-24T23:40:13.689Z,21.59
2022-08-24T23:42:59.947Z,21.60
2022-08-24T23:45:46.491Z,21.62
2022-08-24T23:48:33.133Z,21.87
2022-08-24T23:51:20.332Z,21.97
2022-08-24T23:54:07.684Z,22.09
2022-08-24T23:56:54.421Z,21.95
2022-08-24T23:59:40.639Z,21.80
